sensor_id;sensor_type;location;lat;lon;timestamp;P1;durP1;ratioP1;P2;durP2;ratioP2
76953;SDS011;65893;51.698;-0.292;2023-04-24T00:00:56;36.03;;;17.63;;
76953;SDS011;65893;51.698;-0.292;2023-04-24T00:03:23;36.15;;;17.00;;
76953;SDS011;65893;51.698;-0.292;2023-04-24T00:05:49;37.50;;;17.38;;
76953;SDS011;65893;51.698;-0.292;2023-04-24T00:08:17;36.08;;;16.48;;
76953;SDS011;65893;51.698;-0.292;2023-04-24T00:10:43;38.30;;;17.20;;
76953;SDS011;65893;51.698;-0.292;2023-04-24T00:13:09;33.33;;;15.15;;
76953;SDS011;65893;51.698;-0.292;2023-04-24T00:15:35;32.08;;;16.00;;
76953;SDS011;65893;51.698;-0.292;2023-04-24T00:18:01;31.20;;;14.00;;
76953;SDS011;65893;51.698;-0.292;2023-04-24T00:20:27;29.20;;;13.25;;
76953;SDS011;65893;51.698;-0.292;2023-04-24T00:22:58;29.25;;;13.88;;
76953;SDS011;65893;51.698;-0.292;2023-04-24T00:25:24;33.85;;;14.77;;
76953;SDS011;65893;51.698;-0.292;2023-04-24T00:27:50;31.83;;;15.48;;
76953;SDS011;65893;51.698;-0.292;2023-04-24T00:30:16;31.10;;;15.52;;
76953;SDS011;65893;51.698;-0.292;2023-04-24T00:32:42;31.95;;;14.45;;
76953;SDS011;65893;51.698;-0.292;2023-04-24T00:35:08;33.72;;;15.02;;
76953;SDS011;65893;51.698;-0.292;2023-04-24T00:37:35;32.10;;;15.93;;
76953;SDS011;65893;51.698;-0.292;2023-04-24T00:40:01;30.45;;;14.95;;
76953;SDS011;65893;51.698;-0.292;2023-04-24T00:42:27;30.00;;;14.18;;
76953;SDS011;65893;51.698;-0.292;2023-04-24T00:44:54;24.60;;;12.48;;
76953;SDS011;65893;51.698;-0.292;2023-04-24T00:47:21;24.00;;;11.77;;
76953;SDS011;65893;51.698;-0.292;2023-04-24T00:49:47;31.73;;;13.73;;
76953;SDS011;65893;51.698;-0.292;2023-04-24T00:52:13;27.80;;;13.75;;
76953;SDS011;65893;51.698;-0.292;2023-04-24T00:54:42;26.75;;;15.07;;
76953;SDS011;65893;51.698;-0.292;2023-04-24T00:57:09;26.98;;;13.60;;
76953;SDS011;65893;51.698;-0.292;2023-04-24T00:59:36;29.42;;;14.70;;
76953;SDS011;65893;51.698;-0.292;2023-04-24T01:02:02;30.27;;;14.75;;
76953;SDS011;65893;51.698;-0.292;2023-04-24T01:04:28;30.77;;;15.55;;
76953;SDS011;65893;51.698;-0.292;2023-04-24T01:06:54;28.70;;;13.27;;
76953;SDS011;65893;51.698;-0.292;2023-04-24T01:09:21;29.58;;;13.85;;
76953;SDS011;65893;51.698;-0.292;2023-04-24T01:11:49;32.05;;;15.60;;
76953;SDS011;65893;51.698;-0.292;2023-04-24T01:14:15;28.50;;;14.00;;
76953;SDS011;65893;51.698;-0.292;2023-04-24T01:16:41;28.30;;;14.32;;
76953;SDS011;65893;51.698;-0.292;2023-04-24T01:19:07;27.50;;;14.43;;
76953;SDS011;65893;51.698;-0.292;2023-04-24T01:21:34;26.27;;;13.70;;
76953;SDS011;65893;51.698;-0.292;2023-04-24T01:24:02;27.95;;;13.38;;
76953;SDS011;65893;51.698;-0.292;2023-04-24T01:26:28;34.50;;;14.35;;
76953;SDS011;65893;51.698;-0.292;2023-04-24T01:28:54;33.22;;;14.48;;
76953;SDS011;65893;51.698;-0.292;2023-04-24T01:31:21;32.15;;;14.98;;
76953;SDS011;65893;51.698;-0.292;2023-04-24T01:33:47;28.20;;;14.43;;
76953;SDS011;65893;51.698;-0.292;2023-04-24T01:36:13;30.30;;;14.90;;
76953;SDS011;65893;51.698;-0.292;2023-04-24T01:38:39;30.05;;;13.98;;
76953;SDS011;65893;51.698;-0.292;2023-04-24T01:41:05;29.63;;;15.23;;
76953;SDS011;65893;51.698;-0.292;2023-04-24T01:43:31;29.10;;;14.68;;
76953;SDS011;65893;51.698;-0.292;2023-04-24T01:45:57;33.00;;;15.45;;
76953;SDS011;65893;51.698;-0.292;2023-04-24T01:48:25;32.90;;;15.05;;
76953;SDS011;65893;51.698;-0.292;2023-04-24T01:50:51;30.35;;;15.20;;
76953;SDS011;65893;51.698;-0.292;2023-04-24T01:53:19;29.65;;;15.35;;
76953;SDS011;65893;51.698;-0.292;2023-04-24T01:55:45;34.05;;;15.80;;
76953;SDS011;65893;51.698;-0.292;2023-04-24T01:58:11;32.15;;;15.57;;
76953;SDS011;65893;51.698;-0.292;2023-04-24T02:00:37;37.13;;;16.17;;
76953;SDS011;65893;51.698;-0.292;2023-04-24T02:03:03;34.42;;;16.80;;
76953;SDS011;65893;51.698;-0.292;2023-04-24T02:05:29;38.00;;;15.85;;
76953;SDS011;65893;51.698;-0.292;2023-04-24T02:07:55;33.50;;;16.27;;
76953;SDS011;65893;51.698;-0.292;2023-04-24T02:10:21;32.65;;;14.38;;
76953;SDS011;65893;51.698;-0.292;2023-04-24T02:12:47;28.05;;;13.90;;
76953;SDS011;65893;51.698;-0.292;2023-04-24T02:15:13;32.55;;;14.52;;
76953;SDS011;65893;51.698;-0.292;2023-04-24T02:17:40;28.48;;;14.20;;
76953;SDS011;65893;51.698;-0.292;2023-04-24T02:20:06;30.08;;;14.95;;
76953;SDS011;65893;51.698;-0.292;2023-04-24T02:22:32;30.48;;;14.20;;
76953;SDS011;65893;51.698;-0.292;2023-04-24T02:24:58;28.17;;;13.25;;
76953;SDS011;65893;51.698;-0.292;2023-04-24T02:27:25;28.70;;;14.32;;
76953;SDS011;65893;51.698;-0.292;2023-04-24T02:29:51;12.07;;;5.63;;
76953;SDS011;65893;51.698;-0.292;2023-04-24T02:32:17;29.83;;;11.90;;
76953;SDS011;65893;51.698;-0.292;2023-04-24T02:34:43;24.90;;;12.88;;
76953;SDS011;65893;51.698;-0.292;2023-04-24T02:37:09;30.33;;;12.00;;
76953;SDS011;65893;51.698;-0.292;2023-04-24T02:39:35;23.25;;;11.93;;
76953;SDS011;65893;51.698;-0.292;2023-04-24T02:42:01;13.65;;;6.93;;
76953;SDS011;65893;51.698;-0.292;2023-04-24T02:44:27;11.02;;;4.43;;
76953;SDS011;65893;51.698;-0.292;2023-04-24T02:46:54;14.27;;;5.70;;
76953;SDS011;65893;51.698;-0.292;2023-04-24T02:49:20;16.08;;;6.78;;
76953;SDS011;65893;51.698;-0.292;2023-04-24T02:51:46;9.00;;;5.25;;
76953;SDS011;65893;51.698;-0.292;2023-04-24T02:54:12;8.23;;;3.03;;
76953;SDS011;65893;51.698;-0.292;2023-04-24T02:56:38;6.20;;;2.40;;
76953;SDS011;65893;51.698;-0.292;2023-04-24T02:59:04;7.80;;;3.30;;
76953;SDS011;65893;51.698;-0.292;2023-04-24T03:06:50;15.52;;;6.68;;
76953;SDS011;65893;51.698;-0.292;2023-04-24T03:09:18;20.20;;;6.55;;
76953;SDS011;65893;51.698;-0.292;2023-04-24T03:11:44;16.38;;;6.60;;
76953;SDS011;65893;51.698;-0.292;2023-04-24T03:14:10;21.67;;;7.60;;
76953;SDS011;65893;51.698;-0.292;2023-04-24T03:16:37;16.50;;;7.30;;
76953;SDS011;65893;51.698;-0.292;2023-04-24T03:19:03;19.77;;;7.85;;
76953;SDS011;65893;51.698;-0.292;2023-04-24T03:21:32;17.25;;;8.43;;
76953;SDS011;65893;51.698;-0.292;2023-04-24T03:24:00;17.83;;;7.22;;
76953;SDS011;65893;51.698;-0.292;2023-04-24T03:26:27;18.48;;;7.75;;
76953;SDS011;65893;51.698;-0.292;2023-04-24T03:28:56;22.67;;;7.97;;
76953;SDS011;65893;51.698;-0.292;2023-04-24T03:31:22;17.00;;;7.90;;
76953;SDS011;65893;51.698;-0.292;2023-04-24T03:33:51;20.35;;;8.68;;
76953;SDS011;65893;51.698;-0.292;2023-04-24T03:36:20;24.40;;;7.10;;
76953;SDS011;65893;51.698;-0.292;2023-04-24T03:38:48;22.40;;;8.77;;
76953;SDS011;65893;51.698;-0.292;2023-04-24T03:41:14;17.85;;;7.70;;
76953;SDS011;65893;51.698;-0.292;2023-04-24T03:43:42;19.38;;;7.28;;
76953;SDS011;65893;51.698;-0.292;2023-04-24T03:46:08;15.45;;;6.72;;
76953;SDS011;65893;51.698;-0.292;2023-04-24T03:48:35;17.48;;;7.22;;
76953;SDS011;65893;51.698;-0.292;2023-04-24T03:51:01;16.63;;;6.53;;
76953;SDS011;65893;51.698;-0.292;2023-04-24T03:53:35;12.95;;;6.50;;
76953;SDS011;65893;51.698;-0.292;2023-04-24T03:56:01;16.45;;;6.90;;
76953;SDS011;65893;51.698;-0.292;2023-04-24T03:58:28;13.98;;;6.50;;
76953;SDS011;65893;51.698;-0.292;2023-04-24T04:00:56;19.45;;;7.95;;
76953;SDS011;65893;51.698;-0.292;2023-04-24T04:03:23;14.70;;;6.35;;
76953;SDS011;65893;51.698;-0.292;2023-04-24T04:05:53;16.88;;;7.75;;
76953;SDS011;65893;51.698;-0.292;2023-04-24T04:08:19;24.73;;;6.85;;
76953;SDS011;65893;51.698;-0.292;2023-04-24T04:13:36;15.68;;;5.97;;
76953;SDS011;65893;51.698;-0.292;2023-04-24T04:16:05;15.82;;;6.70;;
76953;SDS011;65893;51.698;-0.292;2023-04-24T04:18:33;22.13;;;6.03;;
76953;SDS011;65893;51.698;-0.292;2023-04-24T04:20:59;15.18;;;4.32;;
76953;SDS011;65893;51.698;-0.292;2023-04-24T04:23:26;18.58;;;5.78;;
76953;SDS011;65893;51.698;-0.292;2023-04-24T04:25:53;13.30;;;4.65;;
76953;SDS011;65893;51.698;-0.292;2023-04-24T04:31:10;12.40;;;4.20;;
76953;SDS011;65893;51.698;-0.292;2023-04-24T04:33:46;15.70;;;4.60;;
76953;SDS011;65893;51.698;-0.292;2023-04-24T04:36:16;13.70;;;5.20;;
76953;SDS011;65893;51.698;-0.292;2023-04-24T04:38:43;15.23;;;4.45;;
76953;SDS011;65893;51.698;-0.292;2023-04-24T04:41:12;10.88;;;4.63;;
76953;SDS011;65893;51.698;-0.292;2023-04-24T04:43:41;8.00;;;3.03;;
76953;SDS011;65893;51.698;-0.292;2023-04-24T04:46:15;12.07;;;4.63;;
76953;SDS011;65893;51.698;-0.292;2023-04-24T04:48:45;13.63;;;4.55;;
76953;SDS011;65893;51.698;-0.292;2023-04-24T04:51:12;12.20;;;4.60;;
76953;SDS011;65893;51.698;-0.292;2023-04-24T04:53:41;15.98;;;5.47;;
76953;SDS011;65893;51.698;-0.292;2023-04-24T04:56:09;9.32;;;2.70;;
76953;SDS011;65893;51.698;-0.292;2023-04-24T04:58:36;12.20;;;3.25;;
76953;SDS011;65893;51.698;-0.292;2023-04-24T05:01:02;8.10;;;2.83;;
76953;SDS011;65893;51.698;-0.292;2023-04-24T05:03:37;6.25;;;2.83;;
76953;SDS011;65893;51.698;-0.292;2023-04-24T05:06:06;12.50;;;5.35;;
76953;SDS011;65893;51.698;-0.292;2023-04-24T05:08:35;7.97;;;3.30;;
76953;SDS011;65893;51.698;-0.292;2023-04-24T05:11:01;11.32;;;3.15;;
76953;SDS011;65893;51.698;-0.292;2023-04-24T05:13:27;7.90;;;2.78;;
76953;SDS011;65893;51.698;-0.292;2023-04-24T05:15:58;8.85;;;3.10;;
76953;SDS011;65893;51.698;-0.292;2023-04-24T05:18:24;10.77;;;4.15;;
76953;SDS011;65893;51.698;-0.292;2023-04-24T05:20:50;4.40;;;1.95;;
76953;SDS011;65893;51.698;-0.292;2023-04-24T05:23:17;12.80;;;3.83;;
76953;SDS011;65893;51.698;-0.292;2023-04-24T05:25:44;14.75;;;3.33;;
76953;SDS011;65893;51.698;-0.292;2023-04-24T05:28:15;13.00;;;3.88;;
76953;SDS011;65893;51.698;-0.292;2023-04-24T05:30:41;4.95;;;1.63;;
76953;SDS011;65893;51.698;-0.292;2023-04-24T05:33:13;9.95;;;3.70;;
76953;SDS011;65893;51.698;-0.292;2023-04-24T05:35:49;9.45;;;3.55;;
76953;SDS011;65893;51.698;-0.292;2023-04-24T05:38:17;9.18;;;3.50;;
76953;SDS011;65893;51.698;-0.292;2023-04-24T05:40:44;11.40;;;3.53;;
76953;SDS011;65893;51.698;-0.292;2023-04-24T05:43:15;12.00;;;5.00;;
76953;SDS011;65893;51.698;-0.292;2023-04-24T05:45:44;7.60;;;3.30;;
76953;SDS011;65893;51.698;-0.292;2023-04-24T05:48:10;10.55;;;3.10;;
76953;SDS011;65893;51.698;-0.292;2023-04-24T05:50:42;10.43;;;3.58;;
76953;SDS011;65893;51.698;-0.292;2023-04-24T05:53:12;13.98;;;3.35;;
76953;SDS011;65893;51.698;-0.292;2023-04-24T05:55:50;12.07;;;2.20;;
76953;SDS011;65893;51.698;-0.292;2023-04-24T05:58:19;9.48;;;2.80;;
76953;SDS011;65893;51.698;-0.292;2023-04-24T06:00:52;8.73;;;3.03;;
76953;SDS011;65893;51.698;-0.292;2023-04-24T06:03:24;11.70;;;2.75;;
76953;SDS011;65893;51.698;-0.292;2023-04-24T06:05:50;5.60;;;1.88;;
76953;SDS011;65893;51.698;-0.292;2023-04-24T06:08:16;9.55;;;2.38;;
76953;SDS011;65893;51.698;-0.292;2023-04-24T06:10:43;11.60;;;3.00;;
76953;SDS011;65893;51.698;-0.292;2023-04-24T06:13:09;8.52;;;2.60;;
76953;SDS011;65893;51.698;-0.292;2023-04-24T06:15:37;6.97;;;2.67;;
76953;SDS011;65893;51.698;-0.292;2023-04-24T06:18:03;12.60;;;2.22;;
76953;SDS011;65893;51.698;-0.292;2023-04-24T06:20:29;12.95;;;2.90;;
76953;SDS011;65893;51.698;-0.292;2023-04-24T06:22:56;12.35;;;2.17;;
76953;SDS011;65893;51.698;-0.292;2023-04-24T06:25:26;7.22;;;2.72;;
76953;SDS011;65893;51.698;-0.292;2023-04-24T06:27:52;9.43;;;2.38;;
76953;SDS011;65893;51.698;-0.292;2023-04-24T06:30:26;6.72;;;2.35;;
76953;SDS011;65893;51.698;-0.292;2023-04-24T06:32:53;7.70;;;2.22;;
76953;SDS011;65893;51.698;-0.292;2023-04-24T06:35:19;5.30;;;2.25;;
76953;SDS011;65893;51.698;-0.292;2023-04-24T06:38:03;8.32;;;2.10;;
76953;SDS011;65893;51.698;-0.292;2023-04-24T06:40:29;8.90;;;1.77;;
76953;SDS011;65893;51.698;-0.292;2023-04-24T06:42:55;9.35;;;2.40;;
76953;SDS011;65893;51.698;-0.292;2023-04-24T06:45:24;4.20;;;1.40;;
76953;SDS011;65893;51.698;-0.292;2023-04-24T06:47:51;7.18;;;1.60;;
76953;SDS011;65893;51.698;-0.292;2023-04-24T06:50:26;12.77;;;2.38;;
76953;SDS011;65893;51.698;-0.292;2023-04-24T06:52:52;8.57;;;1.85;;
76953;SDS011;65893;51.698;-0.292;2023-04-24T06:55:29;2.50;;;0.63;;
76953;SDS011;65893;51.698;-0.292;2023-04-24T06:57:55;5.75;;;2.10;;
76953;SDS011;65893;51.698;-0.292;2023-04-24T07:00:21;2.53;;;0.98;;
76953;SDS011;65893;51.698;-0.292;2023-04-24T07:02:50;5.93;;;1.40;;
76953;SDS011;65893;51.698;-0.292;2023-04-24T07:05:16;4.82;;;1.60;;
76953;SDS011;65893;51.698;-0.292;2023-04-24T07:07:45;12.77;;;2.05;;
76953;SDS011;65893;51.698;-0.292;2023-04-24T07:10:11;8.88;;;1.60;;
76953;SDS011;65893;51.698;-0.292;2023-04-24T07:12:38;11.32;;;1.75;;
76953;SDS011;65893;51.698;-0.292;2023-04-24T07:15:05;5.95;;;1.20;;
76953;SDS011;65893;51.698;-0.292;2023-04-24T07:17:31;6.60;;;1.80;;
76953;SDS011;65893;51.698;-0.292;2023-04-24T07:19:57;4.45;;;2.20;;
76953;SDS011;65893;51.698;-0.292;2023-04-24T07:22:25;6.63;;;2.13;;
76953;SDS011;65893;51.698;-0.292;2023-04-24T07:24:51;1.92;;;0.68;;
76953;SDS011;65893;51.698;-0.292;2023-04-24T07:27:17;5.07;;;1.40;;
76953;SDS011;65893;51.698;-0.292;2023-04-24T07:29:43;4.20;;;1.23;;
76953;SDS011;65893;51.698;-0.292;2023-04-24T07:32:11;3.67;;;1.02;;
76953;SDS011;65893;51.698;-0.292;2023-04-24T07:34:37;5.43;;;1.48;;
76953;SDS011;65893;51.698;-0.292;2023-04-24T07:37:07;5.97;;;1.17;;
76953;SDS011;65893;51.698;-0.292;2023-04-24T07:39:33;6.43;;;1.10;;
76953;SDS011;65893;51.698;-0.292;2023-04-24T07:41:59;7.38;;;2.15;;
76953;SDS011;65893;51.698;-0.292;2023-04-24T07:44:26;3.20;;;1.35;;
76953;SDS011;65893;51.698;-0.292;2023-04-24T07:46:52;1.20;;;0.55;;
76953;SDS011;65893;51.698;-0.292;2023-04-24T07:49:21;5.47;;;1.63;;
76953;SDS011;65893;51.698;-0.292;2023-04-24T07:51:47;3.40;;;1.48;;
76953;SDS011;65893;51.698;-0.292;2023-04-24T07:54:13;4.80;;;1.00;;
76953;SDS011;65893;51.698;-0.292;2023-04-24T07:56:40;4.20;;;1.20;;
76953;SDS011;65893;51.698;-0.292;2023-04-24T07:59:07;6.10;;;1.70;;
76953;SDS011;65893;51.698;-0.292;2023-04-24T08:01:34;2.85;;;0.95;;
76953;SDS011;65893;51.698;-0.292;2023-04-24T08:04:01;2.42;;;0.82;;
76953;SDS011;65893;51.698;-0.292;2023-04-24T08:06:27;8.63;;;1.25;;
76953;SDS011;65893;51.698;-0.292;2023-04-24T08:08:55;6.65;;;1.00;;
76953;SDS011;65893;51.698;-0.292;2023-04-24T08:11:21;4.95;;;1.30;;
76953;SDS011;65893;51.698;-0.292;2023-04-24T08:13:47;3.20;;;0.77;;
76953;SDS011;65893;51.698;-0.292;2023-04-24T08:16:13;5.38;;;1.48;;
76953;SDS011;65893;51.698;-0.292;2023-04-24T08:18:40;5.30;;;1.23;;
76953;SDS011;65893;51.698;-0.292;2023-04-24T08:21:06;7.75;;;1.35;;
76953;SDS011;65893;51.698;-0.292;2023-04-24T08:23:32;7.90;;;1.98;;
76953;SDS011;65893;51.698;-0.292;2023-04-24T08:26:01;5.45;;;1.40;;
76953;SDS011;65893;51.698;-0.292;2023-04-24T08:28:34;3.20;;;1.48;;
76953;SDS011;65893;51.698;-0.292;2023-04-24T08:31:00;4.95;;;1.40;;
76953;SDS011;65893;51.698;-0.292;2023-04-24T08:33:26;5.78;;;1.38;;
76953;SDS011;65893;51.698;-0.292;2023-04-24T08:35:59;5.22;;;1.33;;
76953;SDS011;65893;51.698;-0.292;2023-04-24T08:38:25;3.00;;;1.17;;
76953;SDS011;65893;51.698;-0.292;2023-04-24T08:40:52;2.30;;;0.80;;
76953;SDS011;65893;51.698;-0.292;2023-04-24T08:43:18;3.75;;;1.30;;
76953;SDS011;65893;51.698;-0.292;2023-04-24T08:45:48;9.45;;;1.40;;
76953;SDS011;65893;51.698;-0.292;2023-04-24T08:48:14;6.15;;;1.92;;
76953;SDS011;65893;51.698;-0.292;2023-04-24T08:50:40;3.70;;;1.00;;
76953;SDS011;65893;51.698;-0.292;2023-04-24T08:53:08;5.18;;;1.25;;
76953;SDS011;65893;51.698;-0.292;2023-04-24T08:55:36;6.38;;;1.42;;
76953;SDS011;65893;51.698;-0.292;2023-04-24T08:58:04;4.07;;;1.05;;
76953;SDS011;65893;51.698;-0.292;2023-04-24T09:00:30;4.28;;;1.30;;
76953;SDS011;65893;51.698;-0.292;2023-04-24T09:02:57;6.15;;;1.52;;
76953;SDS011;65893;51.698;-0.292;2023-04-24T09:05:23;3.55;;;1.20;;
76953;SDS011;65893;51.698;-0.292;2023-04-24T09:07:49;6.60;;;1.30;;
76953;SDS011;65893;51.698;-0.292;2023-04-24T09:10:21;5.93;;;1.40;;
76953;SDS011;65893;51.698;-0.292;2023-04-24T09:12:49;4.55;;;1.45;;
76953;SDS011;65893;51.698;-0.292;2023-04-24T09:15:15;6.63;;;1.58;;
76953;SDS011;65893;51.698;-0.292;2023-04-24T09:17:42;6.78;;;1.90;;
76953;SDS011;65893;51.698;-0.292;2023-04-24T09:20:08;4.78;;;1.25;;
76953;SDS011;65893;51.698;-0.292;2023-04-24T09:22:34;7.00;;;1.58;;
76953;SDS011;65893;51.698;-0.292;2023-04-24T09:25:04;4.85;;;1.35;;
76953;SDS011;65893;51.698;-0.292;2023-04-24T09:27:31;6.78;;;1.63;;
76953;SDS011;65893;51.698;-0.292;2023-04-24T09:29:58;8.45;;;1.80;;
76953;SDS011;65893;51.698;-0.292;2023-04-24T09:32:25;6.65;;;1.75;;
76953;SDS011;65893;51.698;-0.292;2023-04-24T09:35:08;8.02;;;1.23;;
76953;SDS011;65893;51.698;-0.292;2023-04-24T09:37:38;6.15;;;1.60;;
76953;SDS011;65893;51.698;-0.292;2023-04-24T09:42:44;7.43;;;2.15;;
76953;SDS011;65893;51.698;-0.292;2023-04-24T09:45:11;7.25;;;2.17;;
76953;SDS011;65893;51.698;-0.292;2023-04-24T09:47:38;7.82;;;1.50;;
76953;SDS011;65893;51.698;-0.292;2023-04-24T09:50:17;4.28;;;1.48;;
76953;SDS011;65893;51.698;-0.292;2023-04-24T09:52:44;7.90;;;2.22;;
76953;SDS011;65893;51.698;-0.292;2023-04-24T09:55:13;7.82;;;1.58;;
76953;SDS011;65893;51.698;-0.292;2023-04-24T09:57:48;9.63;;;1.98;;
76953;SDS011;65893;51.698;-0.292;2023-04-24T10:00:17;8.25;;;2.00;;
76953;SDS011;65893;51.698;-0.292;2023-04-24T10:02:43;7.55;;;2.15;;
76953;SDS011;65893;51.698;-0.292;2023-04-24T10:05:12;7.43;;;2.30;;
76953;SDS011;65893;51.698;-0.292;2023-04-24T10:07:39;6.05;;;1.65;;
76953;SDS011;65893;51.698;-0.292;2023-04-24T10:10:06;5.43;;;1.88;;
76953;SDS011;65893;51.698;-0.292;2023-04-24T10:12:32;10.10;;;2.63;;
76953;SDS011;65893;51.698;-0.292;2023-04-24T10:14:59;10.55;;;2.17;;
76953;SDS011;65893;51.698;-0.292;2023-04-24T10:17:26;6.90;;;1.52;;
76953;SDS011;65893;51.698;-0.292;2023-04-24T10:19:54;7.93;;;1.90;;
76953;SDS011;65893;51.698;-0.292;2023-04-24T10:22:20;9.20;;;2.10;;
76953;SDS011;65893;51.698;-0.292;2023-04-24T10:24:47;7.35;;;1.80;;
76953;SDS011;65893;51.698;-0.292;2023-04-24T10:27:14;5.88;;;1.83;;
76953;SDS011;65893;51.698;-0.292;2023-04-24T10:29:43;6.55;;;2.33;;
76953;SDS011;65893;51.698;-0.292;2023-04-24T10:32:09;9.18;;;2.75;;
76953;SDS011;65893;51.698;-0.292;2023-04-24T10:34:36;8.98;;;3.72;;
76953;SDS011;65893;51.698;-0.292;2023-04-24T10:37:02;12.35;;;4.10;;
76953;SDS011;65893;51.698;-0.292;2023-04-24T10:39:30;13.38;;;3.58;;
76953;SDS011;65893;51.698;-0.292;2023-04-24T10:41:58;11.52;;;3.60;;
76953;SDS011;65893;51.698;-0.292;2023-04-24T10:44:36;9.52;;;3.45;;
76953;SDS011;65893;51.698;-0.292;2023-04-24T10:47:03;5.75;;;2.30;;
76953;SDS011;65893;51.698;-0.292;2023-04-24T10:49:29;10.07;;;3.55;;
76953;SDS011;65893;51.698;-0.292;2023-04-24T10:52:13;8.10;;;2.90;;
76953;SDS011;65893;51.698;-0.292;2023-04-24T10:54:46;8.07;;;2.17;;
76953;SDS011;65893;51.698;-0.292;2023-04-24T10:59:44;5.07;;;1.45;;
76953;SDS011;65893;51.698;-0.292;2023-04-24T11:02:35;3.40;;;1.27;;
76953;SDS011;65893;51.698;-0.292;2023-04-24T11:05:21;6.60;;;2.05;;
76953;SDS011;65893;51.698;-0.292;2023-04-24T11:10:32;9.50;;;2.00;;
76953;SDS011;65893;51.698;-0.292;2023-04-24T11:13:01;6.00;;;1.85;;
76953;SDS011;65893;51.698;-0.292;2023-04-24T11:15:27;8.20;;;1.90;;
76953;SDS011;65893;51.698;-0.292;2023-04-24T11:17:55;7.28;;;1.88;;
76953;SDS011;65893;51.698;-0.292;2023-04-24T11:20:22;8.35;;;1.83;;
76953;SDS011;65893;51.698;-0.292;2023-04-24T11:22:50;5.45;;;1.73;;
76953;SDS011;65893;51.698;-0.292;2023-04-24T11:25:20;6.35;;;2.40;;
76953;SDS011;65893;51.698;-0.292;2023-04-24T11:27:47;5.60;;;2.05;;
76953;SDS011;65893;51.698;-0.292;2023-04-24T11:30:18;10.90;;;2.50;;
76953;SDS011;65893;51.698;-0.292;2023-04-24T11:32:47;11.32;;;2.55;;
76953;SDS011;65893;51.698;-0.292;2023-04-24T11:35:18;8.32;;;2.17;;
76953;SDS011;65893;51.698;-0.292;2023-04-24T11:37:46;4.05;;;1.60;;
76953;SDS011;65893;51.698;-0.292;2023-04-24T11:40:17;6.78;;;2.58;;
76953;SDS011;65893;51.698;-0.292;2023-04-24T11:42:47;5.15;;;1.73;;
76953;SDS011;65893;51.698;-0.292;2023-04-24T11:45:15;6.13;;;1.70;;
76953;SDS011;65893;51.698;-0.292;2023-04-24T11:48:03;5.10;;;1.92;;
76953;SDS011;65893;51.698;-0.292;2023-04-24T11:50:29;9.73;;;2.03;;
76953;SDS011;65893;51.698;-0.292;2023-04-24T11:52:55;5.88;;;2.33;;
76953;SDS011;65893;51.698;-0.292;2023-04-24T11:55:22;7.65;;;2.10;;
76953;SDS011;65893;51.698;-0.292;2023-04-24T11:57:52;6.93;;;1.80;;
76953;SDS011;65893;51.698;-0.292;2023-04-24T12:00:22;7.95;;;2.15;;
76953;SDS011;65893;51.698;-0.292;2023-04-24T12:03:03;6.75;;;1.75;;
76953;SDS011;65893;51.698;-0.292;2023-04-24T12:05:32;8.25;;;2.38;;
76953;SDS011;65893;51.698;-0.292;2023-04-24T12:07:59;7.03;;;1.60;;
76953;SDS011;65893;51.698;-0.292;2023-04-24T12:10:26;7.85;;;2.08;;
76953;SDS011;65893;51.698;-0.292;2023-04-24T12:12:55;7.85;;;1.65;;
76953;SDS011;65893;51.698;-0.292;2023-04-24T12:15:21;5.60;;;1.90;;
76953;SDS011;65893;51.698;-0.292;2023-04-24T12:17:49;5.38;;;1.88;;
76953;SDS011;65893;51.698;-0.292;2023-04-24T12:20:16;7.72;;;2.33;;
76953;SDS011;65893;51.698;-0.292;2023-04-24T12:22:52;6.28;;;2.38;;
76953;SDS011;65893;51.698;-0.292;2023-04-24T12:30:50;3.10;;;1.33;;
76953;SDS011;65893;51.698;-0.292;2023-04-24T12:33:21;5.28;;;1.63;;
76953;SDS011;65893;51.698;-0.292;2023-04-24T12:35:59;5.72;;;1.70;;
76953;SDS011;65893;51.698;-0.292;2023-04-24T12:38:26;4.28;;;1.73;;
76953;SDS011;65893;51.698;-0.292;2023-04-24T12:41:07;2.47;;;1.20;;
76953;SDS011;65893;51.698;-0.292;2023-04-24T12:43:33;5.65;;;1.70;;
76953;SDS011;65893;51.698;-0.292;2023-04-24T12:46:05;3.80;;;1.63;;
76953;SDS011;65893;51.698;-0.292;2023-04-24T12:48:31;4.43;;;1.58;;
76953;SDS011;65893;51.698;-0.292;2023-04-24T12:51:00;4.22;;;1.40;;
76953;SDS011;65893;51.698;-0.292;2023-04-24T12:53:26;4.75;;;1.55;;
76953;SDS011;65893;51.698;-0.292;2023-04-24T12:55:54;5.50;;;1.50;;
76953;SDS011;65893;51.698;-0.292;2023-04-24T12:58:20;6.78;;;2.15;;
76953;SDS011;65893;51.698;-0.292;2023-04-24T13:00:46;4.95;;;1.20;;
76953;SDS011;65893;51.698;-0.292;2023-04-24T13:03:13;6.82;;;1.80;;
76953;SDS011;65893;51.698;-0.292;2023-04-24T13:05:39;4.90;;;1.90;;
76953;SDS011;65893;51.698;-0.292;2023-04-24T13:08:05;7.22;;;1.63;;
76953;SDS011;65893;51.698;-0.292;2023-04-24T13:10:31;7.93;;;1.65;;
76953;SDS011;65893;51.698;-0.292;2023-04-24T13:12:57;4.93;;;1.55;;
76953;SDS011;65893;51.698;-0.292;2023-04-24T13:15:23;5.68;;;1.60;;
76953;SDS011;65893;51.698;-0.292;2023-04-24T13:17:50;3.08;;;1.30;;
76953;SDS011;65893;51.698;-0.292;2023-04-24T13:20:16;3.22;;;1.20;;
76953;SDS011;65893;51.698;-0.292;2023-04-24T13:22:42;6.75;;;1.73;;
76953;SDS011;65893;51.698;-0.292;2023-04-24T13:25:08;4.80;;;1.67;;
76953;SDS011;65893;51.698;-0.292;2023-04-24T13:27:35;5.57;;;1.58;;
76953;SDS011;65893;51.698;-0.292;2023-04-24T13:30:01;2.60;;;1.20;;
76953;SDS011;65893;51.698;-0.292;2023-04-24T13:32:27;4.55;;;1.30;;
76953;SDS011;65893;51.698;-0.292;2023-04-24T13:34:53;4.20;;;1.52;;
76953;SDS011;65893;51.698;-0.292;2023-04-24T13:37:22;4.18;;;1.27;;
76953;SDS011;65893;51.698;-0.292;2023-04-24T13:39:48;5.60;;;1.80;;
76953;SDS011;65893;51.698;-0.292;2023-04-24T13:42:15;3.88;;;1.25;;
76953;SDS011;65893;51.698;-0.292;2023-04-24T13:44:42;5.22;;;1.55;;
76953;SDS011;65893;51.698;-0.292;2023-04-24T13:47:08;2.53;;;1.00;;
76953;SDS011;65893;51.698;-0.292;2023-04-24T13:49:34;6.88;;;1.30;;
76953;SDS011;65893;51.698;-0.292;2023-04-24T13:52:06;4.60;;;1.42;;
76953;SDS011;65893;51.698;-0.292;2023-04-24T13:54:32;5.60;;;1.63;;
76953;SDS011;65893;51.698;-0.292;2023-04-24T13:56:58;4.95;;;1.40;;
76953;SDS011;65893;51.698;-0.292;2023-04-24T13:59:25;3.22;;;0.90;;
76953;SDS011;65893;51.698;-0.292;2023-04-24T14:01:51;2.42;;;0.73;;
76953;SDS011;65893;51.698;-0.292;2023-04-24T14:04:17;5.90;;;1.30;;
76953;SDS011;65893;51.698;-0.292;2023-04-24T14:06:44;6.25;;;1.20;;
76953;SDS011;65893;51.698;-0.292;2023-04-24T14:09:10;4.13;;;1.10;;
76953;SDS011;65893;51.698;-0.292;2023-04-24T14:11:37;7.53;;;1.88;;
76953;SDS011;65893;51.698;-0.292;2023-04-24T14:14:03;3.33;;;0.90;;
76953;SDS011;65893;51.698;-0.292;2023-04-24T14:16:29;2.13;;;0.63;;
76953;SDS011;65893;51.698;-0.292;2023-04-24T14:18:56;2.95;;;1.25;;
76953;SDS011;65893;51.698;-0.292;2023-04-24T14:21:22;5.68;;;1.60;;
76953;SDS011;65893;51.698;-0.292;2023-04-24T14:23:48;2.90;;;1.02;;
76953;SDS011;65893;51.698;-0.292;2023-04-24T14:26:14;3.58;;;1.13;;
76953;SDS011;65893;51.698;-0.292;2023-04-24T14:28:41;4.30;;;1.30;;
76953;SDS011;65893;51.698;-0.292;2023-04-24T14:31:08;4.78;;;1.30;;
76953;SDS011;65893;51.698;-0.292;2023-04-24T14:33:34;4.80;;;1.60;;
76953;SDS011;65893;51.698;-0.292;2023-04-24T14:36:00;4.35;;;1.38;;
76953;SDS011;65893;51.698;-0.292;2023-04-24T14:38:27;1.10;;;0.52;;
76953;SDS011;65893;51.698;-0.292;2023-04-24T14:40:54;4.68;;;1.38;;
76953;SDS011;65893;51.698;-0.292;2023-04-24T14:43:28;3.67;;;1.00;;
76953;SDS011;65893;51.698;-0.292;2023-04-24T14:45:55;6.25;;;1.20;;
76953;SDS011;65893;51.698;-0.292;2023-04-24T14:48:21;4.07;;;1.27;;
76953;SDS011;65893;51.698;-0.292;2023-04-24T14:50:47;5.47;;;1.75;;
76953;SDS011;65893;51.698;-0.292;2023-04-24T14:53:14;5.85;;;1.60;;